Time;durP1;ratioP1;P1;durP2;ratioP2;P2;SDS_P1;SDS_P2;PMS_P1;PMS_P2;Temp;Humidity;BMP_temperature;BMP_pressure;BME280_temperature;BME280_humidity;BME280_pressure;Samples;Min_cycle;Max_cycle;Signal;HPM_P1;HPM_P2
2024/03/08 00:00:22;;;;;;;58.85;35.95;;;6.20;99.90;;;6.34;92.34;101648.19;5010890;28;20045;-76
2024/03/08 00:02:51;;;;;;;62.08;35.20;;;6.30;99.90;;;6.19;92.41;101664.44;5010671;28;20050;-77
2024/03/08 00:05:21;;;;;;;63.67;35.53;;;6.10;99.90;;;6.24;92.15;101641.81;5010560;28;20038;-76
2024/03/08 00:07:50;;;;;;;60.13;37.22;;;6.20;99.90;;;6.28;92.26;101661.16;5010640;28;20052;-76
2024/03/08 00:10:20;;;;;;;61.97;36.53;;;6.20;99.90;;;5.84;92.10;101554.13;5010480;28;20727;-76
2024/03/08 00:12:51;;;;;;;59.10;36.58;;;6.20;99.90;;;6.14;92.65;101645.06;4993317;28;20112;-77
2024/03/08 00:15:22;;;;;;;62.08;35.60;;;6.10;99.90;;;6.10;91.94;101639.69;5011217;28;20399;-75
2024/03/08 00:17:51;;;;;;;62.92;36.63;;;6.00;99.90;;;6.02;92.91;101643.88;5010798;28;20046;-77
2024/03/08 00:20:21;;;;;;;63.17;36.88;;;5.90;99.90;;;5.97;93.03;101643.75;5010800;28;20050;-76
2024/03/08 00:22:51;;;;;;;62.47;36.63;;;5.90;99.90;;;5.89;93.39;101639.13;5010556;28;20552;-76
2024/03/08 00:25:19;;;;;;;61.45;37.28;;;5.80;99.90;;;6.01;93.14;101632.47;5010714;28;20042;-77
2024/03/08 00:27:49;;;;;;;66.07;36.70;;;5.90;99.90;;;6.12;92.64;101638.88;5010723;28;20445;-77
2024/03/08 00:30:18;;;;;;;67.00;36.22;;;6.00;99.90;;;5.98;92.72;101624.50;5010487;28;20092;-75
2024/03/08 00:32:46;;;;;;;60.70;36.22;;;5.90;99.90;;;6.07;92.75;101637.00;5010671;28;20097;-77
2024/03/08 00:35:15;;;;;;;58.97;35.42;;;5.90;99.90;;;6.12;91.83;101623.13;5010360;28;20050;-76
2024/03/08 00:37:46;;;;;;;60.13;37.10;;;6.00;99.90;;;6.01;92.11;101621.06;5010616;28;20042;-77
2024/03/08 00:40:15;;;;;;;66.95;36.50;;;5.90;99.90;;;6.08;92.09;101621.25;5010589;28;20046;-76
2024/03/08 00:42:44;;;;;;;64.10;35.83;;;5.90;99.90;;;6.08;91.55;101621.25;5010320;28;20046;-76
2024/03/08 00:45:13;;;;;;;63.60;37.28;;;6.00;99.90;;;6.01;91.51;101616.72;5010284;28;20034;-76
2024/03/08 00:47:43;;;;;;;56.83;34.08;;;5.90;99.90;;;6.14;91.52;101621.41;5013529;28;20540;-76
2024/03/08 00:50:13;;;;;;;57.95;36.13;;;6.00;99.90;;;6.03;90.94;101611.50;5013865;28;20045;-76
2024/03/08 00:52:42;;;;;;;66.60;36.83;;;6.00;99.90;;;6.12;90.66;101611.72;4996313;28;20072;-76
2024/03/08 00:55:12;;;;;;;63.33;36.80;;;6.00;99.90;;;6.04;90.34;101610.66;5013813;28;20097;-76
2024/03/08 00:57:41;;;;;;;61.70;36.78;;;6.00;99.90;;;6.06;90.60;101614.19;5013969;28;20041;-77
2024/03/08 01:00:12;;;;;;;56.57;36.23;;;6.00;99.90;;;5.88;91.24;101611.09;5013804;28;20057;-75
2024/03/08 01:02:41;;;;;;;58.67;35.53;;;5.80;99.90;;;5.76;91.83;101608.13;5014142;28;20281;-77
2024/03/08 01:05:10;;;;;;;58.83;37.75;;;5.70;99.90;;;5.98;91.17;101594.75;5013891;28;20050;-76
2024/03/08 01:07:38;;;;;;;62.25;36.10;;;5.80;99.90;;;5.94;90.26;101596.38;5013538;28;20041;-77
2024/03/08 01:10:10;;;;;;;62.03;37.53;;;5.80;99.90;;;5.85;90.79;101590.00;5013759;28;20081;-75
2024/03/08 01:12:40;;;;;;;63.90;37.55;;;5.80;99.90;;;5.75;90.57;101588.84;5013460;28;20557;-77
2024/03/08 01:15:10;;;;;;;57.88;36.50;;;5.70;99.90;;;5.49;91.50;101584.66;5013344;28;20509;-77
2024/03/08 01:17:39;;;;;;;59.63;36.88;;;5.50;99.90;;;5.57;92.02;101588.38;5013565;28;20124;-77
2024/03/08 01:20:10;;;;;;;59.25;36.65;;;5.50;99.90;;;5.61;91.30;101584.09;5013643;28;20084;-78
2024/03/08 01:22:39;;;;;;;59.13;36.05;;;5.50;99.90;;;5.60;91.18;101583.19;5013477;28;20132;-76
2024/03/08 01:25:09;;;;;;;67.65;38.33;;;5.50;99.90;;;5.65;90.49;101559.72;5013312;28;20061;-75
2024/03/08 01:27:37;;;;;;;59.88;35.55;;;5.60;99.90;;;5.65;90.77;101560.59;5013128;28;20058;-76
2024/03/08 01:30:10;;;;;;;60.90;36.28;;;5.60;99.90;;;5.58;91.08;101566.53;5013639;28;20050;-76
2024/03/08 01:32:39;;;;;;;58.20;36.13;;;5.50;99.90;;;5.62;90.47;101565.75;5013059;28;20046;-77
2024/03/08 01:35:10;;;;;;;67.68;37.72;;;5.60;99.90;;;5.62;90.60;101560.50;4995692;28;20141;-76
2024/03/08 01:37:38;;;;;;;59.95;36.45;;;5.60;99.90;;;5.49;90.52;101558.41;4995569;28;20062;-76
2024/03/08 01:40:09;;;;;;;57.30;35.83;;;5.50;99.90;;;5.61;90.71;101555.22;5013221;28;20041;-76
2024/03/08 01:42:38;;;;;;;58.47;36.55;;;5.50;99.90;;;5.71;90.24;101555.50;5012825;28;20054;-77
2024/03/08 01:45:09;;;;;;;57.45;35.90;;;5.60;99.90;;;5.66;89.75;101557.13;5012766;28;20133;-77
2024/03/08 01:47:39;;;;;;;59.25;35.08;;;5.60;99.90;;;5.57;90.17;101553.38;5012743;28;20038;-76
2024/03/08 01:50:10;;;;;;;62.45;35.92;;;5.50;99.90;;;5.63;90.27;101549.19;5012666;28;20034;-76
2024/03/08 01:52:39;;;;;;;57.88;36.92;;;5.50;99.90;;;5.62;89.77;101549.13;5012681;28;20446;-76
2024/03/08 01:55:08;;;;;;;56.47;36.73;;;5.60;99.90;;;5.74;89.85;101549.44;4995052;28;20072;-76
2024/03/08 01:57:38;;;;;;;61.72;36.50;;;5.60;99.90;;;5.56;89.32;101541.97;4995186;28;20050;-76
2024/03/08 02:00:11;;;;;;;58.47;35.43;;;5.50;99.90;;;5.62;89.57;101542.13;4995200;28;20518;-76
2024/03/08 02:02:44;;;;;;;55.38;34.72;;;5.50;99.90;;;5.57;89.24;101538.53;4995049;28;20506;-76
2024/03/08 02:05:13;;;;;;;58.35;36.42;;;5.50;99.90;;;5.68;88.81;101537.06;5012769;28;20080;-77
2024/03/08 02:07:43;;;;;;;54.42;34.92;;;5.50;99.90;;;5.25;89.85;101542.00;4994857;28;20530;-76
2024/03/08 02:10:12;;;;;;;55.97;36.03;;;5.20;99.90;;;5.29;89.60;101535.97;5012642;28;20050;-76
2024/03/08 02:12:41;;;;;;;55.55;34.88;;;5.30;99.90;;;5.50;90.15;101532.22;5012369;28;20045;-76
2024/03/08 02:15:11;;;;;;;60.05;37.17;;;5.30;99.90;;;4.70;89.43;101428.59;5012363;28;20046;-75
2024/03/08 02:17:40;;;;;;;55.72;35.30;;;5.30;99.90;;;5.10;89.33;101468.16;5012317;28;20045;-75
2024/03/08 02:20:13;;;;;;;59.60;37.45;;;5.30;99.90;;;5.49;89.74;101516.44;5012118;28;20163;-77
2024/03/08 02:22:43;;;;;;;55.85;35.15;;;5.40;99.90;;;5.24;89.44;101521.88;5012168;28;20141;-76
2024/03/08 02:25:12;;;;;;;59.60;35.25;;;5.20;99.90;;;5.34;89.38;101509.03;5012302;28;20430;-75
2024/03/08 02:27:41;;;;;;;57.63;34.65;;;5.20;99.90;;;5.41;89.34;101499.59;5012048;28;20041;-75
2024/03/08 02:30:13;;;;;;;63.22;35.53;;;5.30;99.90;;;5.34;89.30;101497.69;5011902;28;20715;-75
2024/03/08 02:32:41;;;;;;;57.58;36.35;;;5.30;99.90;;;5.35;89.55;101499.44;4994405;28;20141;-75
2024/03/08 02:35:10;;;;;;;57.40;35.60;;;5.30;99.90;;;5.44;89.25;101495.31;5011875;28;20548;-77
2024/03/08 02:37:39;;;;;;;60.22;37.75;;;5.30;99.90;;;5.39;88.65;101501.31;5461204;23;20483;-62
2024/03/08 02:40:12;;;;;;;54.75;34.40;;;5.30;99.90;;;5.28;89.04;101500.13;4991570;28;20054;-64
2024/03/08 02:42:41;;;;;;;57.53;36.35;;;5.20;99.90;;;5.41;88.98;101497.88;4991605;28;20038;-65
2024/03/08 02:45:10;;;;;;;58.10;35.90;;;5.30;99.90;;;5.36;88.81;101481.09;4991497;28;20105;-63
2024/03/08 02:47:39;;;;;;;59.67;37.95;;;5.20;99.90;;;5.27;88.88;101483.50;4991860;28;20399;-62
2024/03/08 02:50:09;;;;;;;57.85;35.35;;;5.20;99.90;;;5.33;88.62;101454.81;4990212;28;20084;-62
2024/03/08 02:52:37;;;;;;;56.80;35.17;;;5.30;99.90;;;5.45;88.63;101472.59;4991584;28;20109;-62
2024/03/08 02:55:10;;;;;;;58.50;35.05;;;5.30;99.90;;;5.40;88.12;101474.25;4991827;28;20372;-64
2024/03/08 02:57:41;;;;;;;58.03;35.65;;;5.30;99.90;;;5.43;88.19;101471.69;4991465;28;20061;-63
2024/03/08 03:00:11;;;;;;;58.00;36.85;;;5.40;99.90;;;5.35;88.07;101470.59;4990333;28;20042;-63
2024/03/08 03:02:40;;;;;;;59.75;36.22;;;5.30;99.90;;;5.45;88.16;101467.38;4991608;28;20046;-64
2024/03/08 03:05:09;;;;;;;57.45;36.45;;;5.30;99.90;;;5.36;87.58;101461.88;4991683;28;20057;-63
2024/03/08 03:07:38;;;;;;;56.20;35.60;;;5.30;99.90;;;5.36;87.51;101462.75;4991040;28;20499;-64
2024/03/08 03:10:09;;;;;;;61.97;37.03;;;5.30;99.90;;;5.15;88.06;101453.47;4989391;28;20039;-63
2024/03/08 03:12:38;;;;;;;55.63;35.25;;;5.10;99.90;;;5.15;88.81;101445.59;4991536;28;20057;-63
2024/03/08 03:15:07;;;;;;;56.60;36.65;;;5.00;99.90;;;5.12;88.58;101446.38;4991136;28;20407;-63
2024/03/08 03:17:36;;;;;;;54.08;35.90;;;5.00;99.90;;;5.28;88.32;101443.31;4991249;28;20164;-63
2024/03/08 03:20:10;;;;;;;57.57;37.20;;;5.10;99.90;;;5.28;88.34;101448.56;4991021;28;20670;-64
2024/03/08 03:22:40;;;;;;;62.95;36.22;;;5.10;99.90;;;5.11;88.44;101438.50;4990924;28;20045;-63
2024/03/08 03:25:12;;;;;;;61.78;37.83;;;5.10;99.90;;;5.05;88.01;101440.94;4991039;28;20061;-64
2024/03/08 03:27:41;;;;;;;62.83;37.72;;;5.00;99.90;;;5.00;88.44;101429.44;4990789;28;20429;-64
2024/03/08 03:30:21;;;;;;;59.13;36.75;;;4.90;99.90;;;5.19;88.23;101432.59;4990893;28;20070;-64
2024/03/08 03:32:50;;;;;;;55.88;36.35;;;5.00;99.90;;;5.20;87.85;101433.47;4990823;28;20046;-63
2024/03/08 03:35:20;;;;;;;55.75;35.22;;;5.10;99.90;;;4.98;88.04;101405.81;4990582;28;20121;-63
2024/03/08 03:38:01;;;;;;;57.55;36.90;;;5.10;99.90;;;4.91;87.99;101431.81;4998275;28;20054;-63
2024/03/08 03:40:31;;;;;;;;;;;4.90;99.90;;;4.95;88.48;101425.81;4993328;28;20077;-64
2024/03/08 03:42:59;;;;;;;60.70;37.13;;;4.90;99.90;;;5.09;88.21;101425.31;5010367;28;19928;-62
2024/03/08 03:45:28;;;;;;;59.97;38.72;;;5.00;99.90;;;5.18;87.87;101411.56;5010177;28;20354;-63
2024/03/08 03:48:00;;;;;;;58.10;37.35;;;5.10;99.90;;;5.04;87.53;101418.19;5010000;28;20384;-63
2024/03/08 03:50:29;;;;;;;56.65;38.30;;;5.00;99.90;;;5.08;87.50;101420.03;5010096;28;20152;-63
2024/03/08 03:52:57;;;;;;;57.33;36.25;;;5.00;99.90;;;5.07;87.58;101420.91;5010334;28;20141;-62
2024/03/08 03:55:26;;;;;;;55.50;36.40;;;5.00;99.90;;;5.07;87.34;101424.38;5010241;28;20467;-61
2024/03/08 03:57:58;;;;;;;59.13;38.13;;;5.00;99.90;;;4.92;87.27;101410.88;5010141;28;20057;-62
2024/03/08 04:00:28;;;;;;;58.50;38.23;;;4.90;99.90;;;4.68;87.73;101417.19;5009977;28;20038;-63
2024/03/08 04:02:59;;;;;;;54.57;37.10;;;4.70;99.90;;;4.81;88.25;101398.34;5010306;28;20042;-61
2024/03/08 04:05:28;;;;;;;59.27;39.30;;;4.70;99.90;;;4.78;88.08;101414.00;5010039;28;20088;-63
2024/03/08 04:07:56;;;;;;;59.93;38.63;;;4.70;99.90;;;4.85;87.82;101403.72;5009912;28;20557;-64
2024/03/08 04:10:25;;;;;;;57.70;39.30;;;4.70;99.90;;;4.70;87.31;101410.25;5009952;28;20132;-62
2024/03/08 04:12:54;;;;;;;59.17;38.17;;;4.70;99.90;;;4.68;87.75;101398.84;5009958;28;20239;-63
2024/03/08 04:15:24;;;;;;;61.30;40.08;;;4.60;99.90;;;4.59;87.83;101389.88;5010156;28;20041;-62
2024/03/08 04:17:53;;;;;;;61.97;39.33;;;4.60;99.90;;;4.56;88.25;101395.06;5009956;28;20065;-63
2024/03/08 04:20:21;;;;;;;59.00;39.63;;;4.50;99.90;;;4.56;89.02;101394.16;5010538;28;20042;-63
2024/03/08 04:22:50;;;;;;;60.47;38.37;;;4.40;99.90;;;4.57;88.45;101388.97;5013429;28;20503;-62
2024/03/08 04:25:20;;;;;;;59.78;38.00;;;4.50;99.90;;;4.61;88.09;101394.31;5013565;28;20499;-64
2024/03/08 04:27:49;;;;;;;57.55;38.28;;;4.50;99.90;;;4.70;88.22;101386.69;5013595;28;20050;-62
2024/03/08 04:30:18;;;;;;;62.50;38.90;;;4.60;99.90;;;4.49;87.82;101350.31;5013476;28;20491;-63
2024/03/08 04:32:48;;;;;;;57.83;39.57;;;4.60;99.90;;;4.55;87.39;101393.28;5013533;28;20069;-62
2024/03/08 04:35:17;;;;;;;61.00;40.27;;;4.50;99.90;;;4.19;89.06;101379.13;5013574;28;20491;-64
2024/03/08 04:37:46;;;;;;;62.07;39.07;;;4.20;99.90;;;4.59;88.91;101394.22;5013177;28;20136;-63
2024/03/08 04:40:14;;;;;;;60.10;40.13;;;4.40;99.90;;;4.27;89.15;101393.34;5013504;28;20054;-62
2024/03/08 04:42:44;;;;;;;61.87;40.13;;;4.20;99.90;;;3.48;89.06;101298.47;5013365;28;20046;-62
2024/03/08 04:45:12;;;;;;;58.50;40.17;;;4.10;99.90;;;4.11;89.89;101390.22;5013271;28;20115;-62
2024/03/08 04:47:42;;;;;;;60.17;39.60;;;4.00;99.90;;;4.11;89.87;101388.50;5013503;28;20376;-61
2024/03/08 04:50:12;;;;;;;63.30;40.60;;;4.00;99.90;;;4.26;89.61;101388.03;4995759;28;20049;-64
2024/03/08 04:52:41;;;;;;;60.80;39.10;;;4.10;99.90;;;4.17;89.28;101383.44;5013496;28;20045;-64
2024/03/08 04:55:10;;;;;;;63.03;40.33;;;4.10;99.90;;;4.24;89.18;101372.28;5013062;28;20467;-63
2024/03/08 04:57:38;;;;;;;59.67;39.53;;;4.10;99.90;;;4.12;89.17;101363.22;5012958;28;20130;-64
2024/03/08 05:00:11;;;;;;;61.03;40.30;;;4.10;99.90;;;4.20;89.20;101373.03;5012970;28;20478;-62
2024/03/08 05:02:41;;;;;;;56.90;39.90;;;4.10;99.90;;;4.25;88.77;101365.34;5013205;28;20053;-62
2024/03/08 05:05:11;;;;;;;60.53;40.10;;;4.20;99.90;;;4.34;88.23;101360.34;5012887;28;20041;-62
2024/03/08 05:07:41;;;;;;;;;;;4.30;99.90;;;4.41;87.93;101362.31;5013274;28;20053;-62
2024/03/08 05:10:10;;;;;;;57.10;39.72;;;4.30;99.90;;;4.37;88.31;101356.13;5012939;28;19925;-64
2024/03/08 05:12:39;;;;;;;60.80;39.88;;;4.30;99.90;;;4.38;88.15;101354.34;5013103;28;20053;-62
2024/03/08 05:15:09;;;;;;;58.40;39.58;;;4.30;99.90;;;4.11;88.85;101356.19;5013016;28;20042;-62
2024/03/08 05:17:37;;;;;;;57.05;41.20;;;4.10;99.90;;;4.25;88.31;101354.84;5012705;28;20128;-62
2024/03/08 05:20:08;;;;;;;62.37;41.93;;;4.20;99.90;;;4.25;87.79;101350.53;5012959;28;20489;-62
2024/03/08 05:22:36;;;;;;;60.57;40.80;;;4.20;99.90;;;4.12;88.04;101358.84;5012731;28;20065;-63
2024/03/08 05:25:08;;;;;;;63.70;42.80;;;4.10;99.90;;;4.07;88.36;101351.69;5012710;28;20509;-62
2024/03/08 05:27:37;;;;;;;64.20;41.47;;;4.10;99.90;;;3.99;88.96;101348.84;5012765;28;20038;-62
2024/03/08 05:30:07;;;;;;;65.90;41.30;;;3.90;99.90;;;3.80;89.45;101343.03;5012779;28;20061;-63
2024/03/08 05:32:37;;;;;;;67.63;44.38;;;3.80;99.90;;;3.71;89.48;101343.66;5012368;28;20089;-62
2024/03/08 05:35:07;;;;;;;67.53;43.03;;;3.70;99.90;;;3.90;89.60;101351.22;5012866;28;20141;-63
2024/03/08 05:37:35;;;;;;;65.22;42.00;;;3.80;99.90;;;3.96;89.51;101350.50;4995300;28;20639;-62
2024/03/08 05:40:09;;;;;;;66.57;44.47;;;3.80;99.90;;;3.88;89.72;101341.53;5012642;28;20454;-64
2024/03/08 05:42:44;;;;;;;69.40;43.55;;;3.80;99.90;;;3.90;89.24;101332.91;5012486;28;20065;-62
2024/03/08 05:45:14;;;;;;;61.70;42.23;;;3.90;99.90;;;4.07;89.26;101342.13;5012364;28;20084;-63
2024/03/08 05:47:43;;;;;;;61.95;42.95;;;4.00;99.90;;;4.02;88.86;101341.13;5012340;28;20069;-64
2024/03/08 05:50:11;;;;;;;60.40;41.80;;;3.90;99.90;;;4.12;88.45;101339.66;4994545;28;20046;-62
2024/03/08 05:52:40;;;;;;;64.03;41.93;;;4.10;99.90;;;4.01;87.87;101339.31;5012130;28;20046;-64
2024/03/08 05:55:10;;;;;;;63.13;41.67;;;4.10;99.90;;;3.98;87.97;101339.25;5011996;28;20125;-64
2024/03/08 05:57:39;;;;;;;60.78;42.47;;;4.00;99.90;;;3.93;88.72;101332.97;5012120;28;20069;-66
2024/03/08 06:00:11;;;;;;;60.08;42.15;;;3.90;99.90;;;3.91;88.35;101326.81;5011970;28;20037;-61
2024/03/08 06:02:41;;;;;;;67.27;44.73;;;3.90;99.90;;;3.87;88.74;101334.53;5012003;28;20046;-62
2024/03/08 06:05:11;;;;;;;62.05;42.03;;;3.80;99.90;;;3.77;88.81;101338.63;5012028;28;20046;-62
2024/03/08 06:07:40;;;;;;;66.67;43.13;;;3.80;99.90;;;3.97;89.30;101332.22;5012287;28;20049;-63
2024/03/08 06:10:12;;;;;;;63.53;42.42;;;3.80;99.90;;;3.92;88.67;101331.22;5011612;28;20450;-62
2024/03/08 06:12:42;;;;;;;65.73;44.40;;;3.90;99.90;;;3.93;88.66;101327.75;5011777;28;20144;-62
2024/03/08 06:15:14;;;;;;;59.43;41.37;;;3.80;99.90;;;3.79;88.30;101321.25;5011620;28;20124;-63
2024/03/08 06:17:43;;;;;;;64.60;43.27;;;3.80;99.90;;;3.83;89.12;101311.75;5011568;28;20120;-63
2024/03/08 06:20:12;;;;;;;64.73;43.17;;;3.80;99.90;;;3.86;88.38;101317.06;5011649;28;20041;-62
2024/03/08 06:22:42;;;;;;;66.15;42.70;;;3.80;99.90;;;3.61;89.17;101311.09;5012065;28;20168;-61
2024/03/08 06:25:13;;;;;;;65.07;44.53;;;3.60;99.90;;;3.80;89.21;101302.06;5011616;28;20054;-63
2024/03/08 06:27:42;;;;;;;62.30;42.17;;;3.70;99.90;;;4.03;89.13;101314.09;5011435;28;20049;-61
2024/03/08 06:30:12;;;;;;;70.87;44.30;;;3.90;99.90;;;3.92;88.98;101305.06;4993723;28;20144;-61
2024/03/08 06:32:42;;;;;;;64.97;42.85;;;3.90;99.90;;;4.02;88.58;101301.88;4994001;28;20053;-62
2024/03/08 06:35:11;;;;;;;63.63;43.92;;;3.90;99.90;;;4.16;87.77;101302.25;4994199;28;20472;-63
2024/03/08 06:37:42;;;;;;;68.57;44.63;;;4.10;99.90;;;4.15;87.65;101303.97;5011047;28;20050;-62
2024/03/08 06:40:14;;;;;;;;;;;4.10;99.90;;;3.90;87.49;101262.25;5012066;28;20068;-64
2024/03/08 06:42:43;;;;;;;66.40;42.27;;;4.10;99.90;;;4.14;87.13;101285.63;5011148;28;19933;-62
2024/03/08 06:45:12;;;;;;;65.23;42.93;;;4.20;99.90;;;4.23;86.95;101284.13;5010339;28;20442;-63
2024/03/08 06:47:43;;;;;;;64.78;44.70;;;4.20;99.90;;;4.15;87.31;101285.66;5011381;28;20042;-63
2024/03/08 06:50:12;;;;;;;64.65;42.70;;;4.10;99.90;;;4.29;87.17;101286.94;5011081;28;20056;-62
2024/03/08 06:52:42;;;;;;;67.60;44.47;;;4.20;99.90;;;4.47;87.01;101282.16;5011450;28;20045;-62
2024/03/08 06:55:12;;;;;;;68.18;42.95;;;4.40;99.90;;;4.66;86.69;101277.41;5011074;28;20042;-62
2024/03/08 06:57:41;;;;;;;;;;;4.50;99.90;;;4.80;85.55;101283.91;5011298;28;20503;-62
2024/03/08 07:00:13;;;;;;;66.30;43.00;;;4.70;99.90;;;4.43;85.24;101282.94;5010827;28;19925;-63
2024/03/08 07:02:45;;;;;;;64.87;43.60;;;4.50;99.90;;;4.59;85.77;101274.63;5010544;28;20099;-62
2024/03/08 07:05:14;;;;;;;64.60;43.60;;;4.60;99.90;;;4.80;85.29;101279.53;4993290;28;20153;-63
2024/03/08 07:07:42;;;;;;;59.80;41.73;;;4.70;99.90;;;4.94;84.57;101270.28;5010648;28;20114;-64
2024/03/08 07:10:15;;;;;;;62.80;40.93;;;4.80;99.90;;;4.67;84.26;101271.31;5010539;28;20041;-62
2024/03/08 07:12:43;;;;;;;63.22;40.75;;;4.70;99.90;;;4.94;83.88;101275.53;5010880;28;20177;-63
2024/03/08 07:15:14;;;;;;;64.40;43.03;;;4.80;99.90;;;3.90;84.25;101135.78;5010512;28;20368;-64
2024/03/08 07:17:45;;;;;;;61.60;40.80;;;4.70;99.90;;;4.63;84.85;101278.22;5010347;28;20128;-63
2024/03/08 07:20:16;;;;;;;64.35;40.33;;;4.50;99.90;;;4.72;85.20;101272.34;5010468;28;20041;-61
2024/03/08 07:22:47;;;;;;;59.55;39.95;;;4.60;99.90;;;4.96;83.95;101279.06;5010681;28;20191;-63
2024/03/08 07:25:20;;;;;;;58.33;40.55;;;4.80;99.90;;;4.89;83.32;101271.03;5010601;28;20054;-63
2024/03/08 07:27:51;;;;;;;58.13;40.33;;;4.90;99.90;;;4.36;83.23;101165.78;5010458;28;20050;-61
2024/03/08 07:33:07;;;;;;;58.38;39.95;;;5.00;99.90;;;5.35;82.62;101266.91;5010808;28;20106;-61
2024/03/08 07:35:37;;;;;;;58.90;39.40;;;5.30;99.90;;;5.48;81.91;101270.69;5010368;28;20129;-62
2024/03/08 07:38:06;;;;;;;55.08;38.17;;;5.40;99.90;;;4.73;83.08;101271.47;5010663;28;20065;-62
2024/03/08 07:40:40;;;;;;;58.75;39.88;;;4.80;99.90;;;5.37;82.02;101273.09;4992736;28;20455;-61
2024/03/08 07:43:10;;;;;;;59.58;39.60;;;5.20;99.90;;;5.61;81.91;101254.38;5010475;28;20502;-62
2024/03/08 07:45:39;;;;;;;56.55;38.92;;;5.40;99.90;;;5.78;80.63;101278.34;5010039;28;20156;-63
2024/03/08 07:48:09;;;;;;;59.10;39.65;;;5.60;99.90;;;5.73;81.05;101259.00;5009980;28;20056;-63
2024/03/08 07:50:39;;;;;;;51.80;37.70;;;5.60;99.90;;;5.72;80.19;101254.59;5009981;28;20046;-63
2024/03/08 07:53:08;;;;;;;64.10;39.47;;;5.70;99.90;;;5.66;79.88;101250.09;4992752;28;20140;-62
2024/03/08 07:55:46;;;;;;;58.90;39.67;;;5.70;99.90;;;5.78;80.69;101263.50;4994117;28;20050;-62
2024/03/08 07:58:24;;;;;;;53.78;37.67;;;5.60;99.90;;;6.34;78.77;101267.28;5014483;28;20538;-66
2024/03/08 08:00:56;;;;;;;57.50;38.38;;;6.10;99.90;;;5.95;79.10;101259.50;5014212;28;20045;-67
2024/03/08 08:03:27;;;;;;;53.92;37.33;;;5.90;99.90;;;6.36;79.51;101250.69;5014163;28;20037;-65
2024/03/08 08:05:56;;;;;;;56.35;38.58;;;6.10;99.90;;;6.34;77.80;101260.28;4996716;28;20052;-64
2024/03/08 08:08:26;;;;;;;51.95;37.47;;;6.20;99.90;;;6.34;78.05;101262.03;5013984;28;20495;-66
2024/03/08 08:10:57;;;;;;;62.60;38.65;;;6.10;99.90;;;6.08;78.46;101256.25;5013804;28;20046;-64
2024/03/08 08:13:27;;;;;;;52.47;37.70;;;6.00;99.90;;;6.62;77.69;101242.41;5013896;28;20041;-64
2024/03/08 08:15:56;;;;;;;54.53;38.45;;;6.30;99.90;;;6.38;77.21;101240.22;5014179;28;20052;-64
2024/03/08 08:18:26;;;;;;;50.58;36.72;;;6.30;99.90;;;6.62;76.13;101229.25;5013736;28;20049;-65
2024/03/08 08:20:54;;;;;;;54.60;38.00;;;6.50;99.90;;;6.24;78.55;101237.34;4996415;28;20050;-66
2024/03/08 08:23:23;;;;;;;52.65;37.85;;;6.20;99.90;;;6.81;78.01;101244.47;5014171;28;20041;-64
2024/03/08 08:25:52;;;;;;;52.20;36.90;;;6.50;99.90;;;6.71;77.29;101225.03;5014356;28;20144;-65
2024/03/08 08:28:22;;;;;;;52.28;35.97;;;6.50;99.90;;;6.94;74.56;101215.78;5013538;28;20048;-70
2024/03/08 08:30:52;;;;;;;53.97;35.50;;;6.90;99.90;;;7.21;74.91;101217.94;5013657;28;20057;-63
2024/03/08 08:33:20;;;;;;;48.83;34.72;;;7.00;99.90;;;6.85;74.53;101217.38;5013412;28;20034;-62
2024/03/08 08:35:51;;;;;;;52.78;35.95;;;6.90;99.90;;;7.05;74.30;101218.56;5013474;28;20061;-61
2024/03/08 08:38:20;;;;;;;49.17;36.22;;;7.00;99.90;;;6.66;75.33;101220.56;5013712;28;20046;-61
2024/03/08 08:40:49;;;;;;;49.17;35.40;;;6.60;99.90;;;7.19;75.32;101207.41;4996032;28;20060;-62
2024/03/08 08:43:19;;;;;;;51.53;36.45;;;6.90;99.90;;;6.97;75.02;101199.16;4996071;28;20050;-62
2024/03/08 08:45:53;;;;;;;52.93;36.83;;;6.90;99.90;;;7.32;74.25;101197.06;5013724;28;20057;-62
2024/03/08 08:48:21;;;;;;;56.03;36.63;;;7.10;99.90;;;6.50;76.27;101202.75;4995759;28;20118;-62
2024/03/08 08:50:52;;;;;;;52.58;36.50;;;6.50;99.90;;;6.82;75.93;101198.91;5013167;28;20073;-60
2024/03/08 08:53:20;;;;;;;51.40;36.88;;;6.60;99.90;;;6.82;77.00;101191.03;4996037;28;20058;-63
2024/03/08 08:55:49;;;;;;;55.60;36.28;;;6.50;99.90;;;7.42;74.79;101183.13;5013598;28;20052;-63
2024/03/08 08:58:18;;;;;;;54.28;35.58;;;7.10;99.90;;;7.75;72.80;101187.09;5013303;28;20050;-61
2024/03/08 09:00:47;;;;;;;49.92;35.70;;;7.60;99.90;;;7.34;72.91;101190.94;4995532;28;20410;-64
2024/03/08 09:03:17;;;;;;;50.55;34.58;;;7.40;99.90;;;7.49;73.65;101196.41;4995814;28;20499;-65
2024/03/08 09:05:45;;;;;;;48.42;35.45;;;7.40;99.90;;;7.01;75.68;101178.19;5013530;28;20068;-64
2024/03/08 09:08:14;;;;;;;47.42;33.63;;;7.00;99.90;;;7.06;73.78;101186.16;4995106;28;20046;-63
2024/03/08 09:10:43;;;;;;;53.95;35.47;;;7.00;99.90;;;6.87;76.33;101177.09;4995501;28;20041;-64
2024/03/08 09:13:12;;;;;;;50.33;35.00;;;6.70;99.90;;;7.23;75.51;101168.88;5013220;28;20129;-63
2024/03/08 09:15:52;;;;;;;;;;;7.00;99.90;;;7.41;74.43;101176.13;5013869;28;20121;-63
2024/03/08 09:18:23;;;;;;;51.35;33.67;;;7.20;99.90;;;7.23;73.08;101164.50;5012869;28;19960;-63
2024/03/08 09:20:53;;;;;;;49.20;34.95;;;7.10;99.90;;;7.49;74.54;101171.84;5012776;28;20479;-63
2024/03/08 09:23:22;;;;;;;51.00;35.53;;;7.30;99.90;;;7.46;73.49;101150.75;5012979;28;20057;-62
2024/03/08 09:25:51;;;;;;;47.95;34.08;;;7.30;99.90;;;7.38;73.40;101163.81;5013039;28;20062;-64
2024/03/08 09:28:20;;;;;;;50.15;33.95;;;7.30;99.90;;;7.63;73.01;101157.97;4995000;28;20065;-66
2024/03/08 09:30:49;;;;;;;51.67;34.53;;;7.40;99.90;;;8.04;73.07;101135.63;5012332;28;20049;-64
2024/03/08 09:33:29;;;;;;;48.60;34.17;;;7.80;99.90;;;8.14;72.18;101141.88;5012820;28;20394;-66
2024/03/08 09:35:58;;;;;;;50.45;33.70;;;8.00;99.90;;;8.39;71.39;101143.00;5012516;28;20402;-67
2024/03/08 09:38:31;;;;;;;49.92;34.40;;;8.20;99.90;;;8.41;71.19;101115.78;5012370;28;20058;-68
2024/03/08 09:41:01;;;;;;;47.83;32.50;;;8.30;99.90;;;8.67;71.09;101137.97;5012534;28;20049;-72
2024/03/08 09:43:30;;;;;;;51.78;34.65;;;8.40;99.90;;;8.60;70.25;101122.97;4994837;28;20407;-72
2024/03/08 09:46:00;;;;;;;47.92;33.92;;;8.50;99.90;;;8.49;70.33;101116.75;4994663;28;20439;-72
2024/03/08 09:48:30;;;;;;;45.92;32.58;;;8.40;99.90;;;8.85;68.83;101116.09;5012193;28;20069;-69
2024/03/08 09:50:59;;;;;;;48.65;34.40;;;8.60;99.90;;;8.93;68.09;101098.56;5012221;28;20042;-69
2024/03/08 09:53:27;;;;;;;47.53;33.17;;;8.70;99.90;;;9.17;68.67;101101.38;5012224;28;20525;-69
2024/03/08 09:55:56;;;;;;;47.47;32.80;;;8.90;99.90;;;9.40;67.67;101094.44;5011973;28;20045;-71
2024/03/08 09:58:57;;;;;;;42.25;31.75;;;9.20;99.90;;;9.45;67.11;101090.03;4994427;28;20054;-74
2024/03/08 10:01:26;;;;;;;43.35;32.03;;;9.30;99.90;;;9.62;67.24;101085.69;5011752;28;20041;-74
2024/03/08 10:03:58;;;;;;;46.45;31.45;;;9.40;99.90;;;9.69;65.51;101082.19;5011779;28;20609;-74
2024/03/08 10:06:26;;;;;;;45.58;32.33;;;9.50;99.90;;;9.61;65.48;101073.38;4994530;28;20088;-73
2024/03/08 10:08:55;;;;;;;45.95;32.20;;;9.40;99.90;;;9.73;67.08;101070.75;5011710;28;20467;-74
2024/03/08 10:11:24;;;;;;;46.95;31.65;;;9.50;99.90;;;9.76;65.71;101068.13;5011850;28;20479;-72
2024/03/08 10:13:52;;;;;;;44.92;32.72;;;9.60;99.90;;;10.04;65.83;101055.84;5011769;28;20057;-73
2024/03/08 10:16:24;;;;;;;44.10;30.98;;;9.80;99.90;;;10.10;65.21;101052.34;4993954;28;20084;-74
2024/03/08 10:18:53;;;;;;;43.80;31.15;;;9.90;99.90;;;10.07;64.26;101047.88;5010603;28;20141;-70
2024/03/08 10:21:24;;;;;;;42.05;31.50;;;9.90;99.90;;;10.26;64.65;101043.53;5011341;28;20060;-75
2024/03/08 10:23:53;;;;;;;41.72;32.20;;;10.00;99.90;;;10.46;64.20;101044.38;5011937;28;20046;-75
2024/03/08 10:26:22;;;;;;;43.63;31.10;;;10.20;99.90;;;10.42;64.11;101045.28;5011028;28;20100;-76